createdAt,value
2023-11-26T00:00:39.917Z,1.40
2023-11-26T00:03:08.493Z,1.40
2023-11-26T00:05:37.328Z,1.50
2023-11-26T00:08:06.664Z,1.60
2023-11-26T00:10:35.447Z,1.60
2023-11-26T00:13:04.266Z,1.70
2023-11-26T00:15:36.013Z,1.90
2023-11-26T00:18:06.033Z,2.00
2023-11-26T00:20:34.689Z,2.10
2023-11-26T00:23:11.728Z,2.10
2023-11-26T00:25:43.117Z,2.20
2023-11-26T00:28:14.531Z,2.20
2023-11-26T00:30:48.430Z,2.30
2023-11-26T00:33:28.703Z,2.40
2023-11-26T00:36:02.630Z,2.50
2023-11-26T00:38:32.095Z,2.50
2023-11-26T00:41:03.387Z,2.50
2023-11-26T00:43:38.219Z,2.50
2023-11-26T00:46:15.973Z,2.50
2023-11-26T00:48:48.002Z,2.40
2023-11-26T00:51:27.199Z,2.30
2023-11-26T00:53:55.475Z,2.20
2023-11-26T00:56:25.479Z,2.00
2023-11-26T00:59:05.214Z,1.80
2023-11-26T01:01:35.411Z,1.70
2023-11-26T01:04:10.279Z,1.70
2023-11-26T01:06:43.424Z,1.80
2023-11-26T01:09:19.787Z,1.80
2023-11-26T01:11:50.796Z,1.80
2023-11-26T01:14:28.857Z,1.90
2023-11-26T01:17:01.238Z,1.90
2023-11-26T01:19:33.339Z,2.00
2023-11-26T01:22:10.662Z,2.10
2023-11-26T01:24:39.334Z,2.20
2023-11-26T01:27:12.576Z,2.30
2023-11-26T01:29:43.476Z,2.30
2023-11-26T01:32:15.518Z,2.20
2023-11-26T01:34:52.599Z,2.20
2023-11-26T01:37:24.263Z,2.10
2023-11-26T01:39:53.051Z,2.10
2023-11-26T01:42:23.004Z,2.00
2023-11-26T01:44:54.026Z,1.90
2023-11-26T01:47:25.977Z,1.80
2023-11-26T01:50:02.711Z,1.70
2023-11-26T01:52:31.183Z,1.60
2023-11-26T01:55:00.021Z,1.60
2023-11-26T01:57:32.742Z,1.50
2023-11-26T02:00:02.691Z,1.50
2023-11-26T02:02:44.073Z,1.40
2023-11-26T02:05:18.697Z,1.40
2023-11-26T02:07:48.510Z,1.40
2023-11-26T02:10:37.755Z,1.30
2023-11-26T02:13:08.458Z,1.30
2023-11-26T02:15:38.816Z,1.20
2023-11-26T02:18:12.312Z,1.10
2023-11-26T02:20:49.609Z,1.10
2023-11-26T02:23:19.916Z,1.00
2023-11-26T02:25:52.559Z,1.00
2023-11-26T02:28:22.794Z,0.90
2023-11-26T02:30:54.654Z,0.90
2023-11-26T02:33:27.689Z,0.90
2023-11-26T02:36:27.890Z,0.90
2023-11-26T02:39:02.272Z,0.90
2023-11-26T02:41:34.180Z,1.00
2023-11-26T02:44:07.394Z,1.10
2023-11-26T02:46:40.435Z,1.20
2023-11-26T02:49:14.853Z,1.30
2023-11-26T02:51:49.231Z,1.30
2023-11-26T02:54:17.825Z,1.40
2023-11-26T02:56:51.967Z,1.40
2023-11-26T02:59:20.804Z,1.40
2023-11-26T03:01:52.789Z,1.50
2023-11-26T03:04:24.929Z,1.50
2023-11-26T03:06:54.644Z,1.60
2023-11-26T03:10:03.600Z,1.70
2023-11-26T03:12:51.493Z,1.70
2023-11-26T03:15:31.062Z,1.80
2023-11-26T03:18:00.631Z,1.80
2023-11-26T03:20:32.249Z,1.80
2023-11-26T03:23:02.826Z,1.80
2023-11-26T03:25:31.437Z,1.90
2023-11-26T03:28:00.767Z,2.00
2023-11-26T03:30:29.279Z,2.10
2023-11-26T03:32:58.782Z,2.20
2023-11-26T03:35:28.149Z,2.20
2023-11-26T03:37:56.671Z,2.30
2023-11-26T03:40:26.247Z,2.30
2023-11-26T03:42:57.155Z,2.30
2023-11-26T03:45:43.227Z,2.30
2023-11-26T03:48:22.887Z,2.40
2023-11-26T03:50:54.394Z,2.40
2023-11-26T03:53:28.124Z,2.50
2023-11-26T03:56:00.261Z,2.50
2023-11-26T03:58:28.537Z,2.40
2023-11-26T04:01:04.322Z,2.40
2023-11-26T04:03:39.720Z,2.40
2023-11-26T04:06:08.719Z,2.40
2023-11-26T04:08:42.474Z,2.30
2023-11-26T04:11:16.945Z,2.20
2023-11-26T04:13:48.657Z,2.10
2023-11-26T04:16:23.639Z,2.10
2023-11-26T04:18:53.532Z,2.20
2023-11-26T04:21:23.357Z,2.20
2023-11-26T04:23:55.125Z,2.20
2023-11-26T04:26:44.575Z,2.20
2023-11-26T04:29:17.668Z,2.30
2023-11-26T04:31:50.625Z,2.30
2023-11-26T04:34:22.286Z,2.20
2023-11-26T04:36:52.131Z,2.20
2023-11-26T04:39:30.179Z,2.10
2023-11-26T04:41:59.849Z,2.10
2023-11-26T04:44:28.322Z,2.10
2023-11-26T04:47:00.723Z,2.10
2023-11-26T04:49:31.708Z,2.10
2023-11-26T04:52:01.809Z,2.10
2023-11-26T04:54:30.757Z,2.10
2023-11-26T04:56:59.167Z,2.20
2023-11-26T04:59:29.009Z,2.20
2023-11-26T05:02:02.474Z,2.20
2023-11-26T05:04:34.015Z,2.10
2023-11-26T05:07:03.641Z,2.10
2023-11-26T05:09:32.593Z,2.10
2023-11-26T05:12:02.899Z,2.20
2023-11-26T05:14:31.233Z,2.20
2023-11-26T05:17:02.103Z,2.20
2023-11-26T05:19:33.953Z,2.20
2023-11-26T05:22:02.591Z,2.20
2023-11-26T05:24:31.062Z,2.30
2023-11-26T05:27:05.213Z,2.30
2023-11-26T05:29:38.636Z,2.40
2023-11-26T05:32:08.972Z,2.40
2023-11-26T05:34:51.678Z,2.30
2023-11-26T05:37:20.048Z,2.40
2023-11-26T05:39:50.681Z,2.30
2023-11-26T05:42:19.146Z,2.30
2023-11-26T05:44:48.780Z,2.40
2023-11-26T05:47:18.557Z,2.30
2023-11-26T05:49:46.812Z,2.30
2023-11-26T05:52:16.718Z,2.30
2023-11-26T05:54:49.129Z,2.30
2023-11-26T05:57:17.683Z,2.20
2023-11-26T05:59:46.253Z,2.10
2023-11-26T06:02:15.094Z,2.10
2023-11-26T06:04:52.790Z,2.10
2023-11-26T06:07:24.021Z,2.10
2023-11-26T06:09:52.621Z,2.10
2023-11-26T06:12:22.911Z,2.10
2023-11-26T06:14:51.871Z,2.10
2023-11-26T06:17:30.137Z,2.10
2023-11-26T06:19:59.752Z,2.10
2023-11-26T06:22:28.156Z,2.20
2023-11-26T06:24:56.651Z,2.20
2023-11-26T06:27:26.000Z,2.20
2023-11-26T06:29:54.487Z,2.20
2023-11-26T06:32:27.115Z,2.20
2023-11-26T06:35:03.897Z,2.30
2023-11-26T06:37:32.900Z,2.30
2023-11-26T06:40:01.743Z,2.30
2023-11-26T06:42:40.653Z,2.40
2023-11-26T06:45:10.540Z,2.40
2023-11-26T06:47:40.458Z,2.40
2023-11-26T06:50:22.384Z,2.30
2023-11-26T06:52:51.071Z,2.30
2023-11-26T06:55:19.836Z,2.30
2023-11-26T06:57:51.298Z,2.40
2023-11-26T07:00:31.221Z,2.40
2023-11-26T07:03:02.091Z,2.40
2023-11-26T07:05:32.068Z,2.30
2023-11-26T07:08:03.878Z,2.40
2023-11-26T07:10:41.172Z,2.40
2023-11-26T07:13:12.695Z,2.40
2023-11-26T07:15:41.895Z,2.40
2023-11-26T07:18:10.403Z,2.50
2023-11-26T07:20:44.277Z,2.60
2023-11-26T07:23:23.122Z,2.60
2023-11-26T07:25:55.051Z,2.60
2023-11-26T07:28:24.630Z,2.70
2023-11-26T07:31:03.837Z,2.60
2023-11-26T07:33:33.646Z,2.50
2023-11-26T07:36:03.604Z,2.40
2023-11-26T07:38:31.825Z,2.30
2023-11-26T07:41:00.563Z,2.40
2023-11-26T07:43:29.101Z,2.40
2023-11-26T07:45:59.202Z,2.50
2023-11-26T07:48:37.305Z,2.50
2023-11-26T07:51:07.679Z,2.60
2023-11-26T07:53:39.182Z,2.60
2023-11-26T07:56:09.256Z,2.70
2023-11-26T07:58:43.002Z,2.70
2023-11-26T08:01:14.379Z,2.80
2023-11-26T08:03:42.954Z,2.90
2023-11-26T08:06:19.448Z,3.10
2023-11-26T08:08:47.925Z,3.20
2023-11-26T08:11:17.343Z,3.40
2023-11-26T08:13:47.305Z,3.40
2023-11-26T08:16:19.506Z,3.30
2023-11-26T08:19:00.059Z,3.40
2023-11-26T08:21:37.043Z,3.50
2023-11-26T08:24:14.796Z,3.50
2023-11-26T08:26:45.100Z,3.50
2023-11-26T08:29:14.563Z,3.60
2023-11-26T08:31:44.071Z,3.60
2023-11-26T08:34:17.456Z,3.70
2023-11-26T08:37:06.325Z,3.70
2023-11-26T08:39:43.206Z,3.80
2023-11-26T08:42:20.153Z,3.90
2023-11-26T08:44:58.721Z,4.00
2023-11-26T08:47:32.328Z,4.00
2023-11-26T08:50:04.124Z,3.90
2023-11-26T08:52:42.382Z,3.90
2023-11-26T08:55:22.973Z,3.90
2023-11-26T08:58:01.234Z,3.90
2023-11-26T09:00:33.735Z,3.90
2023-11-26T09:03:22.534Z,4.00
2023-11-26T09:05:59.779Z,4.10
2023-11-26T09:08:38.846Z,4.20
2023-11-26T09:11:10.276Z,4.30
2023-11-26T09:13:38.908Z,4.30
2023-11-26T09:16:09.942Z,4.50
2023-11-26T09:18:38.791Z,4.60
2023-11-26T09:21:07.456Z,4.70
2023-11-26T09:23:44.053Z,4.70
2023-11-26T09:26:12.579Z,4.70
2023-11-26T09:28:41.267Z,4.90
2023-11-26T09:31:14.024Z,5.00
2023-11-26T09:33:55.329Z,5.00
2023-11-26T09:36:23.758Z,5.00
2023-11-26T09:38:53.537Z,5.10
2023-11-26T09:41:22.500Z,5.30
2023-11-26T09:43:54.167Z,5.40
2023-11-26T09:46:33.369Z,5.40
2023-11-26T09:49:05.773Z,5.40
2023-11-26T09:51:38.656Z,5.40
2023-11-26T09:54:12.663Z,5.30
2023-11-26T09:56:42.536Z,5.30
2023-11-26T09:59:27.371Z,5.50
2023-11-26T10:02:18.846Z,5.60
2023-11-26T10:04:57.382Z,5.60
2023-11-26T10:07:45.619Z,5.70
2023-11-26T10:10:22.706Z,5.70
2023-11-26T10:12:56.216Z,5.70
2023-11-26T10:15:27.641Z,5.50
2023-11-26T10:18:10.507Z,5.50
2023-11-26T10:20:50.625Z,5.50
2023-11-26T10:23:37.530Z,5.50
2023-11-26T10:26:21.484Z,5.50
2023-11-26T10:29:09.459Z,5.50
2023-11-26T10:32:03.371Z,5.50
2023-11-26T10:34:47.419Z,5.60
2023-11-26T10:37:36.897Z,5.50
2023-11-26T10:40:19.599Z,5.60
2023-11-26T10:42:54.911Z,5.60
2023-11-26T10:45:29.569Z,5.80
2023-11-26T10:48:03.701Z,5.80
2023-11-26T10:51:13.626Z,5.80
2023-11-26T10:53:59.337Z,5.90
2023-11-26T10:56:56.010Z,6.00
2023-11-26T10:59:39.631Z,6.00
2023-11-26T11:02:20.065Z,6.10
2023-11-26T11:05:00.610Z,6.10
2023-11-26T11:07:37.000Z,6.10
2023-11-26T11:10:24.976Z,6.20
2023-11-26T11:13:17.477Z,6.30
2023-11-26T11:15:55.390Z,6.70
2023-11-26T11:18:57.708Z,7.20
2023-11-26T11:21:28.093Z,7.80
2023-11-26T11:23:58.900Z,7.90
2023-11-26T11:26:37.407Z,7.90
2023-11-26T11:29:12.760Z,7.90
2023-11-26T11:34:40.577Z,7.80
2023-11-26T11:37:16.566Z,7.40
2023-11-26T11:39:48.236Z,7.40
2023-11-26T11:42:22.741Z,7.50
2023-11-26T11:44:56.561Z,7.40
2023-11-26T11:47:47.559Z,7.30
2023-11-26T11:50:21.879Z,7.50
2023-11-26T11:52:58.376Z,7.70
2023-11-26T11:55:42.813Z,7.80
2023-11-26T11:58:16.592Z,8.00
2023-11-26T12:00:47.716Z,8.00
2023-11-26T12:03:24.227Z,7.90
2023-11-26T12:06:13.951Z,7.80
2023-11-26T12:08:43.938Z,7.70
2023-11-26T12:11:19.879Z,7.60
2023-11-26T12:13:50.462Z,7.70
2023-11-26T12:16:27.174Z,7.70
2023-11-26T12:18:56.425Z,7.50
2023-11-26T12:21:27.122Z,7.50
2023-11-26T12:24:00.574Z,7.50
2023-11-26T12:26:38.291Z,7.50
2023-11-26T12:29:07.528Z,7.50
2023-11-26T12:31:36.062Z,7.60
2023-11-26T12:34:04.833Z,7.60
2023-11-26T12:36:35.119Z,7.60
2023-11-26T12:39:05.920Z,7.40
2023-11-26T12:41:34.939Z,7.40
2023-11-26T12:44:03.958Z,7.50
2023-11-26T12:46:32.615Z,7.40
2023-11-26T12:49:02.692Z,7.10
2023-11-26T12:51:32.070Z,6.90
2023-11-26T12:54:02.273Z,6.80
2023-11-26T12:56:30.716Z,6.60
2023-11-26T12:59:01.107Z,6.60
2023-11-26T13:01:32.005Z,6.60
2023-11-26T13:04:00.704Z,6.50
2023-11-26T13:06:31.133Z,6.40
2023-11-26T13:09:07.911Z,6.30
2023-11-26T13:11:39.767Z,6.30
2023-11-26T13:14:11.630Z,6.20
2023-11-26T13:16:45.028Z,6.20
2023-11-26T13:19:18.816Z,6.10
2023-11-26T13:21:48.697Z,6.10
2023-11-26T13:24:28.169Z,6.10
2023-11-26T13:27:03.214Z,6.00
2023-11-26T13:29:33.391Z,6.00
2023-11-26T13:32:04.673Z,5.90
2023-11-26T13:34:36.809Z,5.90
2023-11-26T13:37:10.872Z,5.90
2023-11-26T13:39:45.378Z,6.00
2023-11-26T13:42:21.746Z,6.00
2023-11-26T13:44:54.462Z,6.10
2023-11-26T13:47:33.841Z,6.10
2023-11-26T13:50:06.489Z,6.10
2023-11-26T13:52:48.840Z,6.10
2023-11-26T13:55:27.049Z,6.10
2023-11-26T13:58:02.740Z,6.10
2023-11-26T14:00:35.728Z,6.20
2023-11-26T14:03:20.328Z,6.20
2023-11-26T14:05:56.443Z,6.20
2023-11-26T14:08:35.608Z,6.10
2023-11-26T14:11:10.278Z,6.10
2023-11-26T14:13:41.313Z,6.20
2023-11-26T14:16:22.708Z,6.20
2023-11-26T14:18:54.257Z,6.20
2023-11-26T14:21:31.150Z,6.20
2023-11-26T14:24:08.499Z,6.20
2023-11-26T14:26:42.371Z,6.20
2023-11-26T14:29:12.589Z,6.20
2023-11-26T14:31:48.556Z,6.20
2023-11-26T14:34:18.173Z,6.30
2023-11-26T14:36:49.198Z,6.30
2023-11-26T14:39:22.171Z,6.30
2023-11-26T14:42:00.525Z,6.30
2023-11-26T14:44:33.276Z,6.30
2023-11-26T14:47:08.752Z,6.30
2023-11-26T14:49:39.549Z,6.40
2023-11-26T14:52:12.156Z,6.40
2023-11-26T14:54:46.317Z,6.40
2023-11-26T14:57:20.578Z,6.40
2023-11-26T14:59:51.626Z,6.50
2023-11-26T15:02:20.367Z,6.40
2023-11-26T15:04:52.261Z,6.40
2023-11-26T15:07:22.003Z,6.40
2023-11-26T15:09:52.718Z,6.30
2023-11-26T15:12:26.159Z,6.30
2023-11-26T15:14:58.130Z,6.30
2023-11-26T15:17:32.277Z,6.30
2023-11-26T15:20:08.075Z,6.20
2023-11-26T15:22:37.805Z,6.20
2023-11-26T15:25:07.888Z,6.30
2023-11-26T15:27:40.486Z,6.30
2023-11-26T15:30:16.602Z,6.30
2023-11-26T15:32:46.129Z,6.20
2023-11-26T15:35:17.665Z,6.10
2023-11-26T15:37:55.883Z,6.10
2023-11-26T15:40:32.724Z,6.10
2023-11-26T15:43:06.168Z,6.00
2023-11-26T15:45:39.428Z,6.00
2023-11-26T15:48:10.987Z,6.00
2023-11-26T15:50:41.538Z,5.90
2023-11-26T15:53:09.770Z,5.90
2023-11-26T15:55:41.343Z,5.90
2023-11-26T15:58:16.133Z,5.90
2023-11-26T16:00:47.430Z,5.80
2023-11-26T16:03:17.885Z,5.80
2023-11-26T16:05:46.277Z,5.80
2023-11-26T16:08:14.564Z,5.70
2023-11-26T16:10:45.330Z,5.80
2023-11-26T16:13:16.220Z,5.70
2023-11-26T16:15:49.344Z,5.70
2023-11-26T16:18:19.274Z,5.70
2023-11-26T16:20:53.046Z,5.70
2023-11-26T16:23:21.526Z,5.70
2023-11-26T16:25:51.661Z,5.70
2023-11-26T16:28:21.648Z,5.70
2023-11-26T16:30:50.111Z,5.70
2023-11-26T16:33:38.836Z,5.70
2023-11-26T16:36:08.536Z,5.70
2023-11-26T16:38:37.819Z,5.70
2023-11-26T16:41:06.535Z,5.70
2023-11-26T16:43:39.167Z,5.80
2023-11-26T16:46:10.151Z,5.80
2023-11-26T16:48:38.797Z,5.80
2023-11-26T16:51:10.052Z,5.80
2023-11-26T16:53:41.280Z,5.80
2023-11-26T16:56:11.720Z,5.80
2023-11-26T16:58:47.775Z,5.70
2023-11-26T17:01:16.410Z,5.70
2023-11-26T17:03:45.013Z,5.70
2023-11-26T17:06:15.368Z,5.70
2023-11-26T17:08:45.786Z,5.60
2023-11-26T17:11:16.289Z,5.60
2023-11-26T17:13:46.470Z,5.60
2023-11-26T17:16:16.564Z,5.50
2023-11-26T17:18:47.123Z,5.50
2023-11-26T17:21:18.630Z,5.50
2023-11-26T17:23:51.414Z,5.50
2023-11-26T17:26:23.628Z,5.50
2023-11-26T17:28:53.914Z,5.40
2023-11-26T17:31:26.044Z,5.40
2023-11-26T17:33:55.206Z,5.40
2023-11-26T17:36:25.687Z,5.40
2023-11-26T17:38:55.219Z,5.40
2023-11-26T17:41:25.070Z,5.40
2023-11-26T17:43:57.792Z,5.40
2023-11-26T17:46:28.747Z,5.40
2023-11-26T17:48:59.122Z,5.30
2023-11-26T17:51:28.102Z,5.30
2023-11-26T17:53:57.139Z,5.30
2023-11-26T17:56:25.921Z,5.30
2023-11-26T17:58:54.866Z,5.30
2023-11-26T18:01:25.296Z,5.40
2023-11-26T18:03:56.143Z,5.40
2023-11-26T18:06:25.036Z,5.40
2023-11-26T18:08:55.577Z,5.40
2023-11-26T18:11:24.597Z,5.30
2023-11-26T18:13:56.381Z,5.30
2023-11-26T18:16:29.553Z,5.30
2023-11-26T18:19:00.492Z,5.30
2023-11-26T18:21:29.536Z,5.30
2023-11-26T18:24:01.553Z,5.20
2023-11-26T18:26:33.091Z,5.10
2023-11-26T18:29:04.423Z,5.10
2023-11-26T18:31:36.263Z,5.10
2023-11-26T18:34:05.204Z,5.10
2023-11-26T18:36:33.719Z,5.00
2023-11-26T18:39:02.359Z,5.00
2023-11-26T18:41:31.297Z,5.00
2023-11-26T18:43:59.905Z,5.00
2023-11-26T18:46:42.993Z,5.00
2023-11-26T18:49:12.429Z,5.00
2023-11-26T18:51:46.959Z,5.00
2023-11-26T18:54:16.506Z,5.00
2023-11-26T18:56:45.939Z,4.90
2023-11-26T18:59:19.021Z,4.90
2023-11-26T19:02:04.199Z,4.90
2023-11-26T19:04:33.115Z,4.90
2023-11-26T19:07:05.263Z,4.90
2023-11-26T19:09:39.625Z,4.90
2023-11-26T19:12:08.064Z,4.90
2023-11-26T19:14:36.776Z,4.90
2023-11-26T19:17:06.478Z,4.90
2023-11-26T19:19:35.394Z,4.90
2023-11-26T19:22:04.538Z,4.90
2023-11-26T19:24:32.834Z,4.80
2023-11-26T19:27:00.982Z,4.90
2023-11-26T19:29:29.264Z,4.80
2023-11-26T19:31:57.224Z,4.90
2023-11-26T19:34:34.821Z,4.90
2023-11-26T19:37:03.861Z,4.90
2023-11-26T19:39:32.527Z,4.90
2023-11-26T19:42:00.602Z,4.90
2023-11-26T19:44:31.936Z,4.90
2023-11-26T19:47:00.642Z,4.80
2023-11-26T19:49:29.951Z,4.80
2023-11-26T19:51:58.612Z,4.80
2023-11-26T19:54:26.727Z,4.70
2023-11-26T19:56:56.201Z,4.70
2023-11-26T19:59:24.299Z,4.70
2023-11-26T20:01:53.390Z,4.80
2023-11-26T20:04:22.215Z,4.80
2023-11-26T20:07:04.625Z,4.80
2023-11-26T20:09:33.094Z,4.80
2023-11-26T20:12:01.475Z,4.80
2023-11-26T20:14:29.881Z,4.80
2023-11-26T20:16:58.581Z,4.80
2023-11-26T20:19:26.850Z,4.80
2023-11-26T20:21:56.271Z,4.80
2023-11-26T20:24:27.929Z,4.80
2023-11-26T20:27:03.423Z,4.80
2023-11-26T20:29:31.562Z,4.80
2023-11-26T20:32:16.957Z,4.80
2023-11-26T20:34:47.355Z,4.80
2023-11-26T20:37:17.179Z,4.80
2023-11-26T20:39:45.619Z,4.80
2023-11-26T20:42:21.841Z,4.80
2023-11-26T20:44:50.339Z,4.80
2023-11-26T20:47:18.496Z,4.80
2023-11-26T20:49:49.049Z,4.80
2023-11-26T20:52:19.216Z,4.70
2023-11-26T20:54:55.841Z,4.70
2023-11-26T20:57:43.233Z,4.70
2023-11-26T21:00:13.827Z,4.70
2023-11-26T21:02:50.801Z,4.60
2023-11-26T21:05:21.242Z,4.60
2023-11-26T21:07:52.658Z,4.60
2023-11-26T21:10:20.992Z,4.60
2023-11-26T21:12:49.518Z,4.60
2023-11-26T21:15:18.009Z,4.60
2023-11-26T21:17:52.268Z,4.50
2023-11-26T21:20:21.468Z,4.50
2023-11-26T21:22:51.524Z,4.40
2023-11-26T21:25:19.706Z,4.40
2023-11-26T21:27:56.702Z,4.30
2023-11-26T21:30:28.265Z,4.30
2023-11-26T21:32:56.910Z,4.30
2023-11-26T21:35:28.980Z,4.30
2023-11-26T21:37:59.793Z,4.30
2023-11-26T21:40:29.194Z,4.30
2023-11-26T21:42:57.229Z,4.30
2023-11-26T21:45:27.893Z,4.40
2023-11-26T21:48:11.568Z,4.30
2023-11-26T21:50:41.181Z,4.40
2023-11-26T21:53:11.960Z,4.40
2023-11-26T21:55:40.083Z,4.40
2023-11-26T21:58:08.443Z,4.50
2023-11-26T22:00:38.789Z,4.50
2023-11-26T22:03:12.519Z,4.50
2023-11-26T22:05:40.730Z,4.50
2023-11-26T22:08:20.973Z,4.60
2023-11-26T22:10:54.106Z,4.60
2023-11-26T22:13:22.973Z,4.60
2023-11-26T22:16:01.067Z,4.60
2023-11-26T22:18:42.648Z,4.60
2023-11-26T22:21:21.548Z,4.60
2023-11-26T22:23:56.747Z,4.70
2023-11-26T22:26:45.630Z,4.70
2023-11-26T22:29:14.926Z,4.70
2023-11-26T22:31:43.386Z,4.70
2023-11-26T22:34:13.813Z,4.70
2023-11-26T22:36:45.371Z,4.70
2023-11-26T22:39:16.242Z,4.80
2023-11-26T22:41:45.912Z,4.80
2023-11-26T22:44:14.703Z,4.80
2023-11-26T22:46:43.375Z,4.80
2023-11-26T22:49:12.368Z,4.90
2023-11-26T22:51:44.046Z,4.80
2023-11-26T22:54:12.879Z,4.90
2023-11-26T22:56:41.709Z,4.90
2023-11-26T22:59:11.752Z,4.90
2023-11-26T23:01:41.886Z,4.90
2023-11-26T23:04:10.957Z,4.80
2023-11-26T23:06:41.657Z,4.80
2023-11-26T23:09:13.324Z,4.80
2023-11-26T23:11:45.381Z,4.80
2023-11-26T23:14:16.235Z,4.80
2023-11-26T23:16:46.525Z,4.80
2023-11-26T23:19:16.546Z,4.80
2023-11-26T23:21:44.922Z,4.70
2023-11-26T23:24:13.329Z,4.70
2023-11-26T23:26:43.972Z,4.70
2023-11-26T23:29:12.960Z,4.70
2023-11-26T23:31:42.720Z,4.70
2023-11-26T23:34:11.562Z,4.70
2023-11-26T23:36:43.826Z,4.60
2023-11-26T23:39:13.447Z,4.60
2023-11-26T23:41:42.096Z,4.50
2023-11-26T23:44:13.507Z,4.50
2023-11-26T23:46:43.753Z,4.50
2023-11-26T23:49:14.643Z,4.40
2023-11-26T23:51:43.141Z,4.40
2023-11-26T23:54:14.638Z,4.40
2023-11-26T23:56:42.913Z,4.40
2023-11-26T23:59:11.444Z,4.30
